Time;durP1;ratioP1;P1;durP2;ratioP2;P2;SDS_P1;SDS_P2;PMS_P1;PMS_P2;Temp;Humidity;BMP_temperature;BMP_pressure;BME280_temperature;BME280_humidity;BME280_pressure;Samples;Min_cycle;Max_cycle;Signal;HPM_P1;HPM_P2
2022/02/07 11:40:58;;;;;;;11.45;4.60;;;;;;;;;;5070692;28;20600;-72
2022/02/07 11:43:25;;;;;;;25.92;7.28;;;;;;;;;;5070742;28;20700;-72
2022/02/07 11:45:54;;;;;;;21.38;4.82;;;;;;;;;;5070617;28;20188;-72
2022/02/07 11:48:29;;;;;;;18.90;3.70;;;;;;;;;;5070571;28;20645;-72
2022/02/07 11:50:58;;;;;;;14.20;4.20;;;;;;;;;;5070594;28;20557;-72
2022/02/07 11:53:30;;;;;;;15.60;4.68;;;;;;;;;;5070497;28;20179;-72
2022/02/07 11:56:06;;;;;;;19.77;3.20;;;;;;;;;;5070477;28;20222;-72
2022/02/07 11:58:51;;;;;;;20.00;4.88;;;;;;;;;;5070296;28;20187;-72
2022/02/07 12:12:29;;;;;;;15.35;3.70;;;;;;;;;;5070598;28;20538;-71
2022/02/07 12:14:59;;;;;;;23.77;5.05;;;;;;;;;;5069429;28;20164;-72
2022/02/07 12:17:43;;;;;;;18.63;4.38;;;;;;;;;;5069334;28;20173;-72
2022/02/07 12:20:11;;;;;;;17.92;4.15;;;;;;;;;;5070582;28;20180;-72
2022/02/07 12:22:49;;;;;;;24.33;3.88;;;;;;;;;;5070591;28;20256;-72
2022/02/07 12:25:45;;;;;;;10.85;3.30;;;;;;;;;;5070453;28;20198;-72
2022/02/07 12:28:39;;;;;;;13.45;3.92;;;;;;;;;;5069126;28;20581;-72
2022/02/07 12:33:43;;;;;;;12.68;4.15;;;;;;;;;;5070142;28;20160;-72
2022/02/07 12:36:09;;;;;;;19.83;4.10;;;;;;;;;;5070278;28;20188;-72
2022/02/07 12:38:41;;;;;;;20.63;3.35;;;;;;;;;;5070261;28;20214;-72
2022/02/07 12:41:11;;;;;;;17.42;4.30;;;;;;;;;;5070176;28;20181;-72
2022/02/07 12:43:39;;;;;;;15.98;3.78;;;;;;;;;;5068869;28;20172;-72
2022/02/07 12:46:06;;;;;;;24.67;4.40;;;;;;;;;;5068857;28;20168;-72
2022/02/07 12:48:35;;;;;;;13.13;3.95;;;;;;;;;;5069961;28;20231;-72
2022/02/07 12:51:02;;;;;;;8.75;3.20;;;;;;;;;;5069927;28;20196;-72
2022/02/07 12:53:29;;;;;;;15.20;3.55;;;;;;;;;;5069902;28;20192;-72
2022/02/07 12:55:56;;;;;;;14.35;3.53;;;;;;;;;;5069896;28;20572;-72
2022/02/07 12:58:23;;;;;;;18.67;4.00;;;;;;;;;;5068546;28;20522;-72
2022/02/07 13:00:49;;;;;;;13.57;3.75;;;;;;;;;;5069716;28;20684;-72
2022/02/07 13:03:15;;;;;;;13.25;3.47;;;;;;;;;;5069710;28;20177;-72
2022/02/07 13:05:41;;;;;;;12.40;4.55;;;;;;;;;;5069547;28;20200;-72
2022/02/07 13:08:08;;;;;;;11.55;3.35;;;;;;;;;;5069593;28;20175;-72
2022/02/07 13:10:37;;;;;;;9.13;3.05;;;;;;;;;;5067963;28;20227;-72
2022/02/07 13:13:20;;;;;;;16.90;3.33;;;;;;;;;;5069484;28;20188;-72
2022/02/07 13:15:47;;;;;;;9.52;2.90;;;;;;;;;;5069462;28;20176;-72
2022/02/07 13:18:16;;;;;;;10.93;3.13;;;;;;;;;;5069420;28;20165;-72
2022/02/07 13:20:43;;;;;;;11.13;3.00;;;;;;;;;;5069322;28;20184;-72
2022/02/07 13:23:11;;;;;;;8.88;3.42;;;;;;;;;;5059897;28;20239;-72
2022/02/07 13:25:38;;;;;;;12.55;3.13;;;;;;;;;;5056018;28;20164;-72
2022/02/07 13:28:05;;;;;;;12.77;3.05;;;;;;;;;;5055990;28;20169;-72
2022/02/07 13:30:31;;;;;;;16.02;3.42;;;;;;;;;;5055929;28;20200;-72
2022/02/07 13:32:57;;;;;;;10.52;3.47;;;;;;;;;;5055985;28;20290;-72
2022/02/07 13:35:23;;;;;;;18.27;3.67;;;;;;;;;;5055896;28;20531;-72
2022/02/07 13:37:49;;;;;;;17.15;3.88;;;;;;;;;;5055900;28;20173;-72
2022/02/07 13:40:18;;;;;;;8.93;2.85;;;;;;;;;;5055869;28;20175;-72
2022/02/07 13:42:45;;;;;;;16.85;4.18;;;;;;;;;;5055729;28;20172;-72
2022/02/07 13:45:13;;;;;;;10.90;4.00;;;;;;;;;;5054384;28;20183;-72
2022/02/07 13:47:40;;;;;;;15.95;4.20;;;;;;;;;;5055654;28;20507;-72
2022/02/07 13:50:10;;;;;;;8.50;3.17;;;;;;;;;;5055555;28;20244;-72
2022/02/07 13:52:38;;;;;;;9.70;4.43;;;;;;;;;;5055575;28;20664;-72
2022/02/07 13:55:10;;;;;;;4.70;3.40;;;;;;;;;;5055454;28;20165;-72
2022/02/07 13:57:47;;;;;;;16.30;3.75;;;;;;;;;;5054145;28;20572;-72
2022/02/07 14:00:15;;;;;;;13.50;3.50;;;;;;;;;;5054201;28;20168;-72
2022/02/07 14:02:41;;;;;;;4.70;3.22;;;;;;;;;;5055362;28;20169;-72
2022/02/07 14:05:08;;;;;;;10.57;3.15;;;;;;;;;;5055236;28;20192;-72
2022/02/07 14:07:48;;;;;;;7.53;3.22;;;;;;;;;;5053973;28;20172;-72
2022/02/07 14:10:21;;;;;;;6.88;3.38;;;;;;;;;;5054994;28;20169;-72
2022/02/07 14:12:47;;;;;;;8.73;3.15;;;;;;;;;;5055183;28;20196;-72
2022/02/07 14:15:13;;;;;;;8.60;3.70;;;;;;;;;;5055091;28;20165;-72
2022/02/07 14:17:44;;;;;;;11.00;3.60;;;;;;;;;;5055067;28;20173;-72
2022/02/07 14:20:13;;;;;;;10.40;2.80;;;;;;;;;;5055009;28;20218;-72
2022/02/07 14:22:39;;;;;;;5.25;3.03;;;;;;;;;;5054940;28;20162;-72
2022/02/07 14:25:07;;;;;;;8.18;3.13;;;;;;;;;;5054947;28;20239;-72
2022/02/07 14:27:33;;;;;;;13.07;2.88;;;;;;;;;;5054847;28;20166;-72
2022/02/07 14:29:59;;;;;;;9.95;3.42;;;;;;;;;;5054843;28;20167;-72
2022/02/07 14:32:25;;;;;;;6.80;2.88;;;;;;;;;;5054715;28;20201;-72
2022/02/07 14:34:51;;;;;;;7.05;3.25;;;;;;;;;;5053706;28;20600;-72
2022/02/07 14:37:18;;;;;;;11.65;3.38;;;;;;;;;;5054699;28;20173;-72
2022/02/07 14:39:44;;;;;;;9.05;3.10;;;;;;;;;;5054595;28;20184;-72
2022/02/07 14:42:10;;;;;;;5.68;2.88;;;;;;;;;;5054585;28;20669;-72
2022/02/07 14:44:56;;;;;;;8.02;2.83;;;;;;;;;;5054522;28;20169;-72
2022/02/07 14:47:38;;;;;;;4.95;2.63;;;;;;;;;;5054729;28;20520;-72
2022/02/07 14:50:04;;;;;;;4.53;2.78;;;;;;;;;;5054454;28;20169;-72
2022/02/07 14:52:30;;;;;;;17.90;3.28;;;;;;;;;;5054354;28;20631;-72
2022/02/07 14:54:56;;;;;;;8.60;2.67;;;;;;;;;;5054335;28;20169;-72
2022/02/07 14:57:22;;;;;;;12.73;2.65;;;;;;;;;;5052977;28;20187;-72
2022/02/07 14:59:48;;;;;;;8.43;2.55;;;;;;;;;;5054243;28;20220;-72
2022/02/07 15:02:14;;;;;;;5.78;2.47;;;;;;;;;;5054207;28;20199;-72
2022/02/07 15:04:40;;;;;;;10.25;3.38;;;;;;;;;;5054096;28;20193;-72
2022/02/07 15:07:06;;;;;;;9.45;3.08;;;;;;;;;;5052835;28;20169;-72
2022/02/07 15:09:32;;;;;;;7.53;2.55;;;;;;;;;;5054001;28;20200;-72
2022/02/07 15:12:00;;;;;;;13.23;3.05;;;;;;;;;;5053788;28;20625;-72
2022/02/07 15:14:26;;;;;;;10.27;3.17;;;;;;;;;;5053931;28;20719;-72
2022/02/07 15:16:52;;;;;;;10.65;2.67;;;;;;;;;;5053973;28;20176;-72
2022/02/07 15:19:18;;;;;;;9.43;2.47;;;;;;;;;;5053861;28;20201;-72
2022/02/07 15:21:45;;;;;;;5.82;2.42;;;;;;;;;;5052540;28;20639;-72
2022/02/07 15:24:11;;;;;;;8.05;2.70;;;;;;;;;;5053719;28;20165;-72
2022/02/07 15:26:38;;;;;;;6.03;2.33;;;;;;;;;;5053639;28;20520;-72
2022/02/07 15:29:04;;;;;;;10.93;2.70;;;;;;;;;;5053692;28;20653;-72
2022/02/07 15:31:32;;;;;;;7.78;2.70;;;;;;;;;;5053614;28;20200;-72
2022/02/07 15:34:01;;;;;;;10.35;2.17;;;;;;;;;;5053703;28;20692;-72
2022/02/07 15:36:28;;;;;;;17.95;2.83;;;;;;;;;;5053611;28;20634;-72
2022/02/07 15:38:54;;;;;;;17.15;3.20;;;;;;;;;;5053582;28;20634;-71
2022/02/07 15:41:21;;;;;;;6.55;2.60;;;;;;;;;;5053509;28;20176;-72
2022/02/07 15:43:47;;;;;;;12.85;2.65;;;;;;;;;;5053507;28;20503;-72
2022/02/07 15:46:13;;;;;;;12.75;3.08;;;;;;;;;;5053269;28;20169;-72
